createdAt,value
2022-12-03T00:00:12.183Z,2.5
2022-12-03T00:01:06.882Z,2.25
2022-12-03T00:02:06.934Z,2.53
2022-12-03T00:03:07.088Z,2.59
2022-12-03T00:04:06.985Z,2.64
2022-12-03T00:05:06.915Z,2.64
2022-12-03T00:06:06.899Z,2.56
2022-12-03T00:07:06.883Z,2.56
2022-12-03T00:08:06.960Z,2.61
2022-12-03T00:09:06.879Z,2.73
2022-12-03T00:10:06.894Z,2.68
2022-12-03T00:11:06.881Z,2.79
2022-12-03T00:12:06.881Z,2.73
2022-12-03T00:13:06.880Z,2.57
2022-12-03T00:14:06.895Z,2.57
2022-12-03T00:15:06.891Z,2.43
2022-12-03T00:16:06.970Z,2.62
2022-12-03T00:17:06.874Z,2.62
2022-12-03T00:18:06.877Z,2.72
2022-12-03T00:19:06.878Z,2.72
2022-12-03T00:20:06.892Z,2.68
2022-12-03T00:21:06.876Z,2.72
2022-12-03T00:22:06.878Z,2.72
2022-12-03T00:23:06.879Z,2.72
2022-12-03T00:24:06.883Z,2.79
2022-12-03T00:25:06.905Z,2.76
2022-12-03T00:26:06.880Z,2.79
2022-12-03T00:27:06.890Z,2.75
2022-12-03T00:28:06.904Z,2.75
2022-12-03T00:29:06.916Z,2.74
2022-12-03T00:30:06.913Z,2.74
2022-12-03T00:31:06.976Z,2.64
2022-12-03T00:32:06.899Z,2.8
2022-12-03T00:33:06.888Z,2.78
2022-12-03T00:34:06.892Z,2.67
2022-12-03T00:35:06.891Z,2.67
2022-12-03T00:36:06.903Z,2.7
2022-12-03T00:37:06.913Z,2.76
2022-12-03T00:38:06.894Z,2.72
2022-12-03T00:39:06.899Z,2.7
2022-12-03T00:40:06.910Z,2.79
2022-12-03T00:41:06.896Z,2.75
2022-12-03T00:42:06.894Z,2.8
2022-12-03T00:43:06.905Z,2.76
2022-12-03T00:44:06.915Z,2.9
2022-12-03T00:45:06.907Z,2.98
2022-12-03T00:46:06.935Z,3.06
2022-12-03T00:47:07.048Z,2.59
2022-12-03T00:48:06.893Z,2.74
2022-12-03T00:49:06.930Z,2.9
2022-12-03T00:50:06.909Z,2.83
2022-12-03T00:51:06.897Z,2.96
2022-12-03T00:52:06.894Z,2.94
2022-12-03T00:53:06.887Z,3.12
2022-12-03T00:54:06.892Z,3.04
2022-12-03T00:55:06.983Z,2.92
2022-12-03T00:56:06.897Z,2.78
2022-12-03T00:57:06.899Z,2.79
2022-12-03T00:58:06.879Z,2.66
2022-12-03T00:59:06.909Z,2.59
2022-12-03T01:00:06.920Z,2.59
2022-12-03T01:01:06.891Z,2.86
2022-12-03T01:02:06.959Z,2.85
2022-12-03T01:03:06.891Z,2.87
2022-12-03T01:04:06.896Z,2.86
2022-12-03T01:05:06.986Z,2.84
2022-12-03T01:06:06.892Z,2.85
2022-12-03T01:07:06.904Z,2.85
2022-12-03T01:08:06.976Z,2.9
2022-12-03T01:09:06.887Z,2.7
2022-12-03T01:10:06.908Z,2.75
2022-12-03T01:11:06.902Z,2.86
2022-12-03T01:12:06.900Z,2.84
2022-12-03T01:13:06.904Z,3.02
2022-12-03T01:14:06.920Z,2.94
2022-12-03T01:15:06.912Z,2.89
2022-12-03T01:16:06.978Z,2.85
2022-12-03T01:17:06.908Z,2.66
2022-12-03T01:18:06.884Z,2.66
2022-12-03T01:19:06.901Z,2.82
2022-12-03T01:20:06.901Z,2.85
2022-12-03T01:21:06.874Z,2.89
2022-12-03T01:22:06.876Z,2.88
2022-12-03T01:23:06.884Z,2.67
2022-12-03T01:24:06.876Z,2.85
2022-12-03T01:25:06.890Z,2.72
2022-12-03T01:26:06.876Z,2.7
2022-12-03T01:27:06.890Z,2.74
2022-12-03T01:28:06.875Z,2.69
2022-12-03T01:29:06.894Z,2.64
2022-12-03T01:30:06.917Z,2.76
2022-12-03T01:31:06.920Z,2.69
2022-12-03T01:32:06.978Z,2.78
2022-12-03T01:33:06.879Z,2.78
2022-12-03T01:34:06.881Z,2.8
2022-12-03T01:35:06.955Z,2.81
2022-12-03T01:36:06.878Z,2.65
2022-12-03T01:37:06.875Z,2.77
2022-12-03T01:38:06.973Z,2.73
2022-12-03T01:39:06.876Z,2.79
2022-12-03T01:40:06.915Z,2.86
2022-12-03T01:41:11.480Z,2.86
2022-12-03T01:42:06.888Z,2.72
2022-12-03T01:43:06.901Z,2.68
2022-12-03T01:44:06.911Z,2.79
2022-12-03T01:45:06.919Z,2.85
2022-12-03T01:46:06.948Z,2.65
2022-12-03T01:47:06.987Z,2.71
2022-12-03T01:48:06.900Z,2.73
2022-12-03T01:49:06.898Z,2.65
2022-12-03T01:50:06.912Z,2.68
2022-12-03T01:51:06.903Z,2.55
2022-12-03T01:52:06.892Z,2.5
2022-12-03T01:53:06.889Z,2.57
2022-12-03T01:54:06.894Z,2.46
2022-12-03T01:55:06.913Z,2.6
2022-12-03T01:56:06.893Z,2.46
2022-12-03T01:57:06.898Z,2.29
2022-12-03T01:58:06.892Z,2.26
2022-12-03T01:59:06.909Z,2.5
2022-12-03T02:00:06.924Z,2.5
2022-12-03T02:01:06.905Z,2.53
2022-12-03T02:02:06.951Z,2.6
2022-12-03T02:03:06.904Z,2.65
2022-12-03T02:04:06.929Z,2.69
2022-12-03T02:05:06.924Z,2.65
2022-12-03T02:06:06.899Z,2.52
2022-12-03T02:07:06.896Z,2.4
2022-12-03T02:08:06.949Z,2.4
2022-12-03T02:09:06.877Z,2.43
2022-12-03T02:10:06.909Z,2.37
2022-12-03T02:11:06.898Z,2.26
2022-12-03T02:12:06.877Z,2.26
2022-12-03T02:13:06.893Z,2.27
2022-12-03T02:14:06.910Z,2.49
2022-12-03T02:15:06.908Z,2.49
2022-12-03T02:16:06.946Z,2.4
2022-12-03T02:17:06.895Z,2.39
2022-12-03T02:18:06.904Z,2.44
2022-12-03T02:19:06.900Z,2.57
2022-12-03T02:20:06.918Z,2.4
2022-12-03T02:21:06.897Z,2.47
2022-12-03T02:22:06.901Z,2.46
2022-12-03T02:23:06.895Z,2.54
2022-12-03T02:24:06.898Z,2.67
2022-12-03T02:25:06.923Z,2.49
2022-12-03T02:26:06.882Z,2.49
2022-12-03T02:27:06.881Z,2.37
2022-12-03T02:28:06.881Z,2.26
2022-12-03T02:29:06.906Z,2.38
2022-12-03T02:30:06.907Z,2.48
2022-12-03T02:31:06.936Z,2.3
2022-12-03T02:32:06.875Z,2.2
2022-12-03T02:33:06.885Z,2.49
2022-12-03T02:34:06.874Z,2.59
2022-12-03T02:35:06.897Z,2.49
2022-12-03T02:36:06.880Z,2.64
2022-12-03T02:37:06.881Z,2.58
2022-12-03T02:38:06.879Z,2.6
2022-12-03T02:39:06.882Z,2.71
2022-12-03T02:40:06.886Z,2.76
2022-12-03T02:41:06.879Z,2.7
2022-12-03T02:42:06.878Z,2.64
2022-12-03T02:43:06.874Z,2.63
2022-12-03T02:44:06.891Z,2.76
2022-12-03T02:45:06.887Z,2.8
2022-12-03T02:46:06.895Z,2.81
2022-12-03T02:47:06.909Z,2.81
2022-12-03T02:48:06.875Z,2.77
2022-12-03T02:49:06.892Z,2.89
2022-12-03T02:50:06.901Z,2.78
2022-12-03T02:51:06.888Z,2.81
2022-12-03T02:52:06.895Z,2.95
2022-12-03T02:53:06.895Z,2.95
2022-12-03T02:54:06.895Z,2.98
2022-12-03T02:55:06.911Z,2.76
2022-12-03T02:56:06.888Z,2.92
2022-12-03T02:57:06.888Z,2.94
2022-12-03T02:58:06.884Z,3.04
2022-12-03T02:59:06.907Z,2.93
2022-12-03T03:00:06.910Z,2.93
2022-12-03T03:01:06.945Z,2.78
2022-12-03T03:02:06.931Z,2.67
2022-12-03T03:03:06.884Z,2.66
2022-12-03T03:04:06.898Z,2.57
2022-12-03T03:05:06.906Z,2.69
2022-12-03T03:06:06.890Z,2.69
2022-12-03T03:07:06.893Z,2.74
2022-12-03T03:08:06.915Z,2.88
2022-12-03T03:09:06.889Z,2.75
2022-12-03T03:10:06.902Z,2.66
2022-12-03T03:11:06.884Z,2.68
2022-12-03T03:12:06.884Z,2.76
2022-12-03T03:13:06.893Z,2.71
2022-12-03T03:14:06.909Z,2.86
2022-12-03T03:15:06.911Z,2.9
2022-12-03T03:16:06.944Z,2.91
2022-12-03T03:17:06.892Z,2.99
2022-12-03T03:18:06.891Z,3.03
2022-12-03T03:19:06.888Z,2.86
2022-12-03T03:20:06.911Z,2.92
2022-12-03T03:21:06.905Z,2.88
2022-12-03T03:22:06.895Z,2.88
2022-12-03T03:23:06.906Z,2.75
2022-12-03T03:24:06.889Z,2.69
2022-12-03T03:25:06.909Z,2.83
2022-12-03T03:26:06.887Z,2.77
2022-12-03T03:27:06.890Z,2.56
2022-12-03T03:28:06.884Z,2.65
2022-12-03T03:29:06.914Z,2.48
2022-12-03T03:30:06.890Z,2.48
2022-12-03T03:31:06.877Z,2.47
2022-12-03T03:32:06.908Z,2.47
2022-12-03T03:33:06.894Z,2.4
2022-12-03T03:34:06.870Z,2.53
2022-12-03T03:35:06.898Z,2.55
2022-12-03T03:36:06.875Z,2.53
2022-12-03T03:37:06.878Z,2.66
2022-12-03T03:38:06.877Z,2.35
2022-12-03T03:39:06.873Z,2.39
2022-12-03T03:40:06.894Z,2.41
2022-12-03T03:41:06.875Z,2.46
2022-12-03T03:42:06.879Z,2.48
2022-12-03T03:43:06.877Z,2.4
2022-12-03T03:44:06.883Z,2.25
2022-12-03T03:45:06.883Z,2.13
2022-12-03T03:46:06.982Z,2.32
2022-12-03T03:47:06.870Z,2.31
2022-12-03T03:48:06.874Z,2.27
2022-12-03T03:49:06.869Z,2.23
2022-12-03T03:50:06.888Z,2.13
2022-12-03T03:51:06.874Z,2.21
2022-12-03T03:52:06.879Z,2.21
2022-12-03T03:53:06.894Z,2.2
2022-12-03T03:54:06.876Z,2.24
2022-12-03T03:55:06.896Z,2.36
2022-12-03T03:56:06.891Z,2.24
2022-12-03T03:57:06.891Z,2.25
2022-12-03T03:58:06.891Z,2.35
2022-12-03T03:59:06.911Z,2.35
2022-12-03T04:00:06.918Z,2.35
2022-12-03T04:01:06.985Z,2.05
2022-12-03T04:02:06.902Z,2.19
2022-12-03T04:03:06.891Z,2.31
2022-12-03T04:04:06.930Z,2.21
2022-12-03T04:05:06.910Z,2.36
2022-12-03T04:06:06.886Z,2.34
2022-12-03T04:07:06.886Z,2.15
2022-12-03T04:08:06.966Z,2.28
2022-12-03T04:09:06.897Z,2.32
2022-12-03T04:10:06.914Z,2.33
2022-12-03T04:11:06.888Z,2.32
2022-12-03T04:12:06.896Z,2.16
2022-12-03T04:13:06.886Z,2.04
2022-12-03T04:14:06.917Z,2.34
2022-12-03T04:15:06.910Z,2.31
2022-12-03T04:16:06.942Z,2.42
2022-12-03T04:17:06.887Z,2.36
2022-12-03T04:18:06.891Z,2.63
2022-12-03T04:19:06.887Z,2.49
2022-12-03T04:20:06.904Z,2.61
2022-12-03T04:21:06.888Z,2.72
2022-12-03T04:22:06.904Z,2.43
2022-12-03T04:23:06.888Z,2.55
2022-12-03T04:24:06.892Z,2.68
2022-12-03T04:25:07.002Z,2.63
2022-12-03T04:26:06.885Z,2.74
2022-12-03T04:27:06.890Z,2.72
2022-12-03T04:28:06.891Z,2.77
2022-12-03T04:29:06.913Z,2.66
2022-12-03T04:30:06.898Z,2.66
2022-12-03T04:31:06.932Z,2.36
2022-12-03T04:32:06.884Z,2.58
2022-12-03T04:33:06.886Z,2.64
2022-12-03T04:34:06.883Z,2.62
2022-12-03T04:35:06.959Z,2.39
2022-12-03T04:36:06.868Z,2.38
2022-12-03T04:37:06.887Z,2.48
2022-12-03T04:38:06.887Z,2.48
2022-12-03T04:39:06.884Z,2.54
2022-12-03T04:40:06.885Z,2.38
2022-12-03T04:41:06.878Z,2.53
2022-12-03T04:42:06.874Z,2.53
2022-12-03T04:43:06.869Z,2.48
2022-12-03T04:44:06.967Z,2.42
2022-12-03T04:45:06.891Z,2.44
2022-12-03T04:46:06.946Z,2.41
2022-12-03T04:47:06.888Z,2.34
2022-12-03T04:48:06.874Z,2.2
2022-12-03T04:49:06.876Z,2.37
2022-12-03T04:50:06.892Z,2.3
2022-12-03T04:51:06.902Z,2.52
2022-12-03T04:52:06.877Z,2.36
2022-12-03T04:53:06.874Z,2.33
2022-12-03T04:54:06.871Z,2.53
2022-12-03T04:55:06.887Z,2.62
2022-12-03T04:56:06.873Z,2.76
2022-12-03T04:57:06.868Z,2.58
2022-12-03T04:58:06.874Z,2.68
2022-12-03T04:59:10.124Z,2.68
2022-12-03T05:00:06.916Z,2.66
2022-12-03T05:01:06.929Z,2.44
2022-12-03T05:02:06.945Z,2.44
2022-12-03T05:03:06.939Z,2.65
2022-12-03T05:04:06.881Z,2.67
2022-12-03T05:05:06.911Z,2.78
2022-12-03T05:06:06.895Z,2.85
2022-12-03T05:07:06.880Z,2.91
2022-12-03T05:08:06.963Z,2.82
2022-12-03T05:09:06.882Z,2.78
2022-12-03T05:10:06.892Z,2.78
2022-12-03T05:11:06.881Z,2.58
2022-12-03T05:12:06.893Z,2.61
2022-12-03T05:13:06.894Z,2.71
2022-12-03T05:14:06.906Z,2.53
2022-12-03T05:15:06.906Z,2.59
2022-12-03T05:16:06.897Z,2.43
2022-12-03T05:17:07.004Z,2.34
2022-12-03T05:18:06.892Z,2.32
2022-12-03T05:19:06.894Z,2.41
2022-12-03T05:20:06.900Z,2.41
2022-12-03T05:21:06.883Z,2.26
2022-12-03T05:22:06.891Z,2.23
2022-12-03T05:23:06.887Z,2.42
2022-12-03T05:24:06.890Z,2.41
2022-12-03T05:25:06.906Z,2.58
2022-12-03T05:26:06.893Z,2.63
2022-12-03T05:27:06.913Z,2.59
2022-12-03T05:28:06.882Z,2.59
2022-12-03T05:29:06.908Z,2.8
2022-12-03T05:30:06.907Z,2.8
2022-12-03T05:31:06.944Z,2.49
2022-12-03T05:32:06.884Z,2.74
2022-12-03T05:33:06.889Z,2.88
2022-12-03T05:34:06.893Z,2.88
2022-12-03T05:35:06.902Z,2.76
2022-12-03T05:36:06.869Z,2.76
2022-12-03T05:37:06.892Z,2.9
2022-12-03T05:38:06.904Z,2.89
2022-12-03T05:39:06.896Z,2.71
2022-12-03T05:40:06.909Z,2.71
2022-12-03T05:41:06.890Z,3.02
2022-12-03T05:42:06.885Z,2.94
2022-12-03T05:43:06.886Z,2.91
2022-12-03T05:44:06.909Z,2.99
2022-12-03T05:45:06.908Z,3
2022-12-03T05:46:06.979Z,2.93
2022-12-03T05:47:06.877Z,3.02
2022-12-03T05:48:06.888Z,2.69
2022-12-03T05:49:06.889Z,2.55
2022-12-03T05:50:06.904Z,2.55
2022-12-03T05:51:06.877Z,2.71
2022-12-03T05:52:06.883Z,2.66
2022-12-03T05:53:06.899Z,2.86
2022-12-03T05:54:06.871Z,2.86
2022-12-03T05:55:06.885Z,2.63
2022-12-03T05:56:06.872Z,2.71
2022-12-03T05:57:06.880Z,2.61
2022-12-03T05:58:06.870Z,2.61
2022-12-03T05:59:06.920Z,2.81
2022-12-03T06:00:07.084Z,2.77
2022-12-03T06:01:06.873Z,2.67
2022-12-03T06:02:06.969Z,2.61
2022-12-03T06:03:07.028Z,2.78
2022-12-03T06:04:06.976Z,2.69
2022-12-03T06:05:06.932Z,2.77
2022-12-03T06:06:06.872Z,2.66
2022-12-03T06:07:09.726Z,2.79
2022-12-03T06:08:06.928Z,2.77
2022-12-03T06:09:06.871Z,2.7
2022-12-03T06:10:06.905Z,2.91
2022-12-03T06:11:06.875Z,2.94
2022-12-03T06:12:06.887Z,2.9
2022-12-03T06:13:06.875Z,2.82
2022-12-03T06:14:06.893Z,2.83
2022-12-03T06:15:06.890Z,2.74
2022-12-03T06:16:07.017Z,2.68
2022-12-03T06:17:06.869Z,2.69
2022-12-03T06:18:06.870Z,2.87
2022-12-03T06:19:06.889Z,2.82
2022-12-03T06:20:06.893Z,2.82
2022-12-03T06:21:06.888Z,2.72
2022-12-03T06:22:06.891Z,2.58
2022-12-03T06:23:06.891Z,2.68
2022-12-03T06:24:06.886Z,2.54
2022-12-03T06:25:07.038Z,2.38
2022-12-03T06:26:06.888Z,2.4
2022-12-03T06:27:06.887Z,2.42
2022-12-03T06:28:06.884Z,2.22
2022-12-03T06:29:06.897Z,2.41
2022-12-03T06:30:06.895Z,2.41
2022-12-03T06:31:07.011Z,2.58
2022-12-03T06:32:06.887Z,2.5
2022-12-03T06:33:06.891Z,2.54
2022-12-03T06:34:06.891Z,2.61
2022-12-03T06:35:06.903Z,2.67
2022-12-03T06:36:06.889Z,2.66
2022-12-03T06:37:06.886Z,2.62
2022-12-03T06:38:06.889Z,2.49
2022-12-03T06:39:06.888Z,2.68
2022-12-03T06:40:06.886Z,2.68
2022-12-03T06:41:06.892Z,2.76
2022-12-03T06:42:06.889Z,2.83
2022-12-03T06:43:06.875Z,2.83
2022-12-03T06:44:06.907Z,2.76
2022-12-03T06:45:06.918Z,2.76
2022-12-03T06:46:06.934Z,2.64
2022-12-03T06:47:06.890Z,2.69
2022-12-03T06:48:06.888Z,2.81
2022-12-03T06:49:06.886Z,2.58
2022-12-03T06:50:06.890Z,2.58
2022-12-03T06:51:06.890Z,2.55
2022-12-03T06:52:06.885Z,2.75
2022-12-03T06:53:06.890Z,2.76
2022-12-03T06:54:06.873Z,2.73
2022-12-03T06:55:06.905Z,2.86
2022-12-03T06:56:06.882Z,2.73
2022-12-03T06:57:06.896Z,2.8
2022-12-03T06:58:06.888Z,2.83
2022-12-03T06:59:06.908Z,2.65
2022-12-03T07:00:06.918Z,2.65
2022-12-03T07:01:06.882Z,2.94
2022-12-03T07:02:06.911Z,2.98
2022-12-03T07:03:06.927Z,3.03
2022-12-03T07:04:06.892Z,2.89
2022-12-03T07:05:06.903Z,2.87
2022-12-03T07:06:06.874Z,2.87
2022-12-03T07:07:06.874Z,2.68
2022-12-03T07:08:06.931Z,2.81
2022-12-03T07:09:06.877Z,2.86
2022-12-03T07:10:06.933Z,3.02
2022-12-03T07:11:06.873Z,2.99
2022-12-03T07:12:06.873Z,3.04
2022-12-03T07:13:06.870Z,3.11
2022-12-03T07:14:06.919Z,3.07
2022-12-03T07:15:06.885Z,2.97
2022-12-03T07:16:06.937Z,3.01
2022-12-03T07:17:06.874Z,2.96
2022-12-03T07:18:06.870Z,3.02
2022-12-03T07:19:06.892Z,3.08
2022-12-03T07:20:06.912Z,3.03
2022-12-03T07:21:06.874Z,3.08
2022-12-03T07:22:06.875Z,3.03
2022-12-03T07:23:06.871Z,3.19
2022-12-03T07:24:06.880Z,3.26
2022-12-03T07:25:06.885Z,3.18
2022-12-03T07:26:06.871Z,3.08
2022-12-03T07:27:06.876Z,3.06
2022-12-03T07:28:06.868Z,2.75
2022-12-03T07:29:06.883Z,2.71
2022-12-03T07:30:06.888Z,2.84
2022-12-03T07:31:06.938Z,2.76
2022-12-03T07:32:06.874Z,2.76
2022-12-03T07:33:06.889Z,2.86
2022-12-03T07:34:06.883Z,2.74
2022-12-03T07:35:06.911Z,2.78
2022-12-03T07:36:06.897Z,2.8
2022-12-03T07:37:06.880Z,2.81
2022-12-03T07:38:06.888Z,2.62
2022-12-03T07:39:06.871Z,2.81
2022-12-03T07:40:06.886Z,2.81
2022-12-03T07:41:06.882Z,2.91
2022-12-03T07:42:06.889Z,2.84
2022-12-03T07:43:06.894Z,2.52
2022-12-03T07:44:13.813Z,2.74
2022-12-03T07:45:06.910Z,2.67
2022-12-03T07:46:06.893Z,2.66
2022-12-03T07:47:06.978Z,2.68
2022-12-03T07:48:06.891Z,2.68
2022-12-03T07:49:06.888Z,2.76
2022-12-03T07:50:06.889Z,2.76
2022-12-03T07:51:06.871Z,2.63
2022-12-03T07:52:06.893Z,2.55
2022-12-03T07:53:06.900Z,2.66
2022-12-03T07:54:06.892Z,2.65
2022-12-03T07:55:06.927Z,2.6
2022-12-03T07:56:06.896Z,2.71
2022-12-03T07:57:06.889Z,2.72
2022-12-03T07:58:06.889Z,2.73
2022-12-03T07:59:06.907Z,2.8
2022-12-03T08:00:06.918Z,2.8
2022-12-03T08:01:06.963Z,2.6
2022-12-03T08:02:06.939Z,2.85
2022-12-03T08:03:06.881Z,2.83
2022-12-03T08:04:06.877Z,2.71
2022-12-03T08:05:06.906Z,2.72
2022-12-03T08:06:06.882Z,2.8
2022-12-03T08:07:06.890Z,3.07
2022-12-03T08:08:07.008Z,2.9
2022-12-03T08:09:06.889Z,2.75
2022-12-03T08:10:06.893Z,2.75
2022-12-03T08:11:06.878Z,2.63
2022-12-03T08:12:06.891Z,2.85
2022-12-03T08:13:06.898Z,2.73
2022-12-03T08:14:06.917Z,2.94
2022-12-03T08:15:06.909Z,2.9
2022-12-03T08:16:06.966Z,3.04
2022-12-03T08:17:06.885Z,2.57
2022-12-03T08:18:06.892Z,2.57
2022-12-03T08:19:06.874Z,2.79
2022-12-03T08:20:06.890Z,2.93
2022-12-03T08:21:06.880Z,2.93
2022-12-03T08:22:06.878Z,2.93
2022-12-03T08:23:06.878Z,3.1
2022-12-03T08:24:06.874Z,3.13
2022-12-03T08:25:06.892Z,3.14
2022-12-03T08:26:06.872Z,3.36
2022-12-03T08:27:06.870Z,3.2
2022-12-03T08:28:06.870Z,3.2
2022-12-03T08:29:06.883Z,2.95
2022-12-03T08:30:06.898Z,2.97
2022-12-03T08:31:06.875Z,3.18
2022-12-03T08:32:06.952Z,2.85
2022-12-03T08:33:06.874Z,3.06
2022-12-03T08:34:06.878Z,3.09
2022-12-03T08:35:06.889Z,3.09
2022-12-03T08:36:06.873Z,3.16
2022-12-03T08:37:06.873Z,3.07
2022-12-03T08:38:06.874Z,3.06
2022-12-03T08:39:06.870Z,3.17
2022-12-03T08:40:06.888Z,3
2022-12-03T08:41:06.874Z,3.14
2022-12-03T08:42:12.120Z,3.38
2022-12-03T08:43:06.879Z,3.23
2022-12-03T08:44:06.891Z,3.1
2022-12-03T08:45:06.892Z,3.24
2022-12-03T08:46:06.947Z,3.2
2022-12-03T08:47:06.886Z,3.26
2022-12-03T08:48:06.894Z,3.37
2022-12-03T08:49:06.892Z,3.28
2022-12-03T08:50:06.886Z,3.28
2022-12-03T08:51:06.883Z,3.16
2022-12-03T08:52:06.886Z,3.13
2022-12-03T08:53:06.900Z,3.23
2022-12-03T08:54:06.897Z,3.18
2022-12-03T08:55:06.906Z,3.31
2022-12-03T08:56:06.890Z,3.4
2022-12-03T08:57:06.892Z,3.49
2022-12-03T08:58:06.889Z,3.42
2022-12-03T08:59:06.914Z,3.56
2022-12-03T09:00:06.896Z,3.56
2022-12-03T09:01:07.008Z,3.5
2022-12-03T09:02:06.900Z,3.42
2022-12-03T09:03:06.878Z,3.39
2022-12-03T09:04:06.933Z,3.4
2022-12-03T09:05:06.912Z,3.42
2022-12-03T09:06:06.880Z,3.44
2022-12-03T09:07:06.892Z,3.36
2022-12-03T09:08:06.992Z,3.31
2022-12-03T09:09:07.068Z,3.34
2022-12-03T09:10:06.913Z,3.34
2022-12-03T09:11:06.885Z,3.54
2022-12-03T09:12:06.889Z,3.53
2022-12-03T09:13:06.891Z,3.54
2022-12-03T09:14:06.904Z,3.43
2022-12-03T09:15:06.905Z,3.48
2022-12-03T09:16:06.919Z,3.58
2022-12-03T09:17:07.025Z,3.66
2022-12-03T09:18:06.886Z,3.47
2022-12-03T09:19:06.889Z,3.45
2022-12-03T09:20:06.895Z,3.45
2022-12-03T09:21:06.888Z,3.62
2022-12-03T09:22:06.891Z,3.41
2022-12-03T09:23:06.888Z,3.51
2022-12-03T09:24:06.923Z,3.58
2022-12-03T09:25:06.902Z,3.68
2022-12-03T09:26:06.892Z,3.62
2022-12-03T09:27:06.884Z,3.74
2022-12-03T09:28:06.893Z,3.72
2022-12-03T09:29:11.924Z,3.7
2022-12-03T09:30:06.883Z,3.7
2022-12-03T09:31:06.890Z,3.56
2022-12-03T09:32:06.998Z,3.48
2022-12-03T09:33:06.874Z,3.48
2022-12-03T09:34:06.887Z,3.55
2022-12-03T09:35:06.913Z,3.48
2022-12-03T09:36:06.871Z,3.51
2022-12-03T09:37:06.880Z,3.7
2022-12-03T09:38:06.870Z,3.7
2022-12-03T09:39:06.876Z,3.67
2022-12-03T09:40:06.890Z,3.68
2022-12-03T09:41:06.870Z,3.73
2022-12-03T09:42:06.874Z,3.84
2022-12-03T09:43:06.870Z,4
2022-12-03T09:44:09.648Z,3.86
2022-12-03T09:45:06.879Z,3.7
2022-12-03T09:46:06.913Z,3.82
2022-12-03T09:47:06.870Z,3.54
2022-12-03T09:48:06.876Z,3.58
2022-12-03T09:49:12.254Z,3.71
2022-12-03T09:50:06.884Z,3.78
2022-12-03T09:51:06.874Z,3.81
2022-12-03T09:52:06.961Z,3.86
2022-12-03T09:53:06.893Z,3.83
2022-12-03T09:54:06.868Z,3.86
2022-12-03T09:55:06.893Z,3.73
2022-12-03T09:56:06.870Z,3.86
2022-12-03T09:57:06.874Z,4.03
2022-12-03T09:58:06.894Z,3.78
2022-12-03T09:59:06.903Z,4.04
2022-12-03T10:00:06.896Z,4.04
2022-12-03T10:01:06.954Z,4.22
2022-12-03T10:02:06.999Z,3.97
2022-12-03T10:03:06.883Z,3.99
2022-12-03T10:04:06.939Z,3.61
2022-12-03T10:05:06.962Z,3.04
2022-12-03T10:06:06.885Z,3.34
2022-12-03T10:07:06.885Z,3.34
2022-12-03T10:08:06.940Z,3.65
2022-12-03T10:09:06.880Z,3.39
2022-12-03T10:10:06.905Z,3.39
2022-12-03T10:11:06.926Z,3.64
2022-12-03T10:12:06.898Z,3.62
2022-12-03T10:13:06.887Z,3.63
2022-12-03T10:14:06.908Z,3.63
2022-12-03T10:15:06.903Z,3.75
2022-12-03T10:16:06.886Z,3.74
2022-12-03T10:17:07.034Z,3.89
2022-12-03T10:18:06.890Z,3.83
2022-12-03T10:19:06.893Z,3.99
2022-12-03T10:20:06.898Z,3.99
2022-12-03T10:21:06.949Z,3.92
2022-12-03T10:22:06.885Z,4
2022-12-03T10:23:06.887Z,3.93
2022-12-03T10:24:06.883Z,3.83
2022-12-03T10:25:06.907Z,3.89
2022-12-03T10:26:06.879Z,3.82
2022-12-03T10:27:06.891Z,3.93
2022-12-03T10:28:06.888Z,3.98
2022-12-03T10:29:06.912Z,3.94
2022-12-03T10:30:06.884Z,3.94
2022-12-03T10:31:06.973Z,3.85
2022-12-03T10:32:06.890Z,3.8
2022-12-03T10:33:06.885Z,3.75
2022-12-03T10:34:06.891Z,3.73
2022-12-03T10:35:06.905Z,3.96
2022-12-03T10:36:06.891Z,3.86
2022-12-03T10:37:06.884Z,3.73
2022-12-03T10:38:06.893Z,3.75
2022-12-03T10:39:06.896Z,3.65
2022-12-03T10:40:06.983Z,3.65
2022-12-03T10:41:06.893Z,3.73
2022-12-03T10:42:06.888Z,3.43
2022-12-03T10:43:06.890Z,3.63
2022-12-03T10:44:06.902Z,3.5
2022-12-03T10:45:06.904Z,3.64
2022-12-03T10:46:06.930Z,3.58
2022-12-03T10:47:07.107Z,3.58
2022-12-03T10:48:06.877Z,3.58
2022-12-03T10:49:06.874Z,3.58
2022-12-03T10:50:06.885Z,3.55
2022-12-03T10:51:06.875Z,3.48
2022-12-03T10:52:06.880Z,3.37
2022-12-03T10:53:06.871Z,3.52
2022-12-03T10:54:06.876Z,3.6
2022-12-03T10:55:06.887Z,3.65
2022-12-03T10:56:06.877Z,3.71
2022-12-03T10:57:06.870Z,3.71
2022-12-03T10:58:06.872Z,3.46
2022-12-03T10:59:06.888Z,3.54
2022-12-03T11:00:06.892Z,3.43
2022-12-03T11:01:06.940Z,3.54
2022-12-03T11:02:06.937Z,3.71
2022-12-03T11:03:06.907Z,3.74
2022-12-03T11:04:06.986Z,3.76
2022-12-03T11:05:06.887Z,3.84
2022-12-03T11:06:06.869Z,3.65
2022-12-03T11:07:06.877Z,3.56
2022-12-03T11:08:06.955Z,3.73
2022-12-03T11:09:09.049Z,3.72
2022-12-03T11:10:06.912Z,3.72
2022-12-03T11:11:06.876Z,3.9
2022-12-03T11:12:06.871Z,3.97
2022-12-03T11:13:06.895Z,3.7
2022-12-03T11:14:06.904Z,3.79
2022-12-03T11:15:06.906Z,3.84
2022-12-03T11:16:06.910Z,3.76
2022-12-03T11:17:06.915Z,3.8
2022-12-03T11:18:06.870Z,3.47
2022-12-03T11:19:06.892Z,3.73
2022-12-03T11:20:06.884Z,3.73
2022-12-03T11:21:06.905Z,3.89
2022-12-03T11:22:06.891Z,3.88
2022-12-03T11:23:06.888Z,4.17
2022-12-03T11:24:06.891Z,4.26
2022-12-03T11:25:06.900Z,3.92
2022-12-03T11:26:06.892Z,4.19
2022-12-03T11:27:06.902Z,4.19
2022-12-03T11:28:06.894Z,3.73
2022-12-03T11:29:06.906Z,4.03
2022-12-03T11:30:06.891Z,4.03
2022-12-03T11:31:06.941Z,4
2022-12-03T11:32:06.887Z,3.98
2022-12-03T11:33:06.891Z,3.87
2022-12-03T11:34:06.874Z,4.22
2022-12-03T11:35:06.911Z,4.4
2022-12-03T11:36:06.884Z,4.53
2022-12-03T11:37:06.889Z,4.47
2022-12-03T11:38:06.887Z,4.06
2022-12-03T11:39:06.886Z,4.16
2022-12-03T11:40:06.904Z,4.16
2022-12-03T11:41:06.892Z,3.98
2022-12-03T11:42:06.881Z,3.89
2022-12-03T11:43:06.902Z,3.92
2022-12-03T11:44:06.900Z,3.83
2022-12-03T11:45:06.905Z,4.04
2022-12-03T11:46:06.963Z,4.24
2022-12-03T11:47:06.948Z,4.15
2022-12-03T11:48:06.892Z,4.06
2022-12-03T11:49:06.891Z,4.06
2022-12-03T11:50:06.885Z,4.06
2022-12-03T11:51:06.886Z,3.91
2022-12-03T11:52:06.890Z,3.83
2022-12-03T11:53:06.887Z,3.99
2022-12-03T11:54:06.893Z,3.99
2022-12-03T11:55:06.905Z,4.28
2022-12-03T11:56:06.875Z,4.35
2022-12-03T11:57:06.882Z,4.42
2022-12-03T11:58:06.889Z,4.7
2022-12-03T11:59:06.899Z,4.05
2022-12-03T12:00:06.912Z,4.05
2022-12-03T12:01:06.873Z,4.09
2022-12-03T12:02:06.891Z,3.99
2022-12-03T12:03:06.967Z,3.99
2022-12-03T12:04:06.924Z,3.98
2022-12-03T12:05:06.888Z,3.94
2022-12-03T12:06:06.870Z,3.99
2022-12-03T12:07:06.874Z,4.05
2022-12-03T12:08:07.154Z,3.95
2022-12-03T12:09:06.878Z,3.99
2022-12-03T12:10:06.902Z,3.7
2022-12-03T12:11:06.869Z,3.89
2022-12-03T12:12:06.873Z,3.87
2022-12-03T12:13:06.870Z,3.74
2022-12-03T12:14:06.883Z,3.99
2022-12-03T12:15:06.881Z,3.97
2022-12-03T12:16:06.928Z,4.16
2022-12-03T12:17:06.872Z,4.05
2022-12-03T12:18:06.874Z,4.01
2022-12-03T12:19:06.876Z,4
2022-12-03T12:20:06.888Z,3.91
2022-12-03T12:21:06.869Z,4.16
2022-12-03T12:22:06.870Z,4.16
2022-12-03T12:23:06.884Z,4.15
2022-12-03T12:24:06.883Z,4.32
2022-12-03T12:25:06.905Z,4.13
2022-12-03T12:26:06.884Z,4.07
2022-12-03T12:27:06.881Z,3.93
2022-12-03T12:28:06.886Z,4.11
2022-12-03T12:29:06.908Z,4.19
2022-12-03T12:30:06.897Z,4.19
2022-12-03T12:31:06.969Z,3.88
2022-12-03T12:32:07.018Z,3.88
2022-12-03T12:33:06.893Z,4.05
2022-12-03T12:34:06.887Z,4.1
2022-12-03T12:35:06.901Z,4.17
2022-12-03T12:36:06.901Z,4.23
2022-12-03T12:37:06.887Z,4.33
2022-12-03T12:38:06.881Z,4.27
2022-12-03T12:39:06.885Z,4.39
2022-12-03T12:40:06.883Z,4.39
2022-12-03T12:41:06.888Z,4.21
2022-12-03T12:42:06.890Z,4.25
2022-12-03T12:43:12.665Z,4.42
2022-12-03T12:44:06.905Z,4.4
2022-12-03T12:45:07.076Z,4.31
2022-12-03T12:46:38.715Z,4.45
2022-12-03T12:47:06.931Z,4.44
2022-12-03T12:48:06.890Z,4.15
2022-12-03T12:49:06.884Z,4
2022-12-03T12:50:06.890Z,4
2022-12-03T12:51:06.887Z,4.3
2022-12-03T12:52:06.889Z,4.5
2022-12-03T12:53:06.887Z,4.45
2022-12-03T12:54:06.891Z,4.28
2022-12-03T12:55:06.906Z,4.48
2022-12-03T12:56:06.889Z,4.38
2022-12-03T12:57:06.890Z,4.43
2022-12-03T12:58:06.884Z,4.4
2022-12-03T12:59:06.909Z,4.4
2022-12-03T13:00:06.897Z,4.4
2022-12-03T13:01:06.900Z,4.68
2022-12-03T13:02:10.113Z,4.67
2022-12-03T13:03:06.875Z,4.64
2022-12-03T13:04:06.885Z,4.61
2022-12-03T13:05:06.905Z,4.6
2022-12-03T13:06:06.888Z,4.57
2022-12-03T13:07:06.889Z,4.61
2022-12-03T13:08:10.367Z,4.61
2022-12-03T13:09:06.885Z,4.81
2022-12-03T13:10:06.890Z,4.81
2022-12-03T13:11:06.870Z,4.76
2022-12-03T13:12:06.872Z,4.76
2022-12-03T13:13:06.869Z,4.75
2022-12-03T13:14:06.887Z,4.75
2022-12-03T13:15:06.887Z,4.63
2022-12-03T13:16:06.952Z,4.63
2022-12-03T13:17:06.869Z,4.36
2022-12-03T13:18:06.868Z,4.27
2022-12-03T13:19:06.873Z,4.02
2022-12-03T13:20:08.057Z,3.82
2022-12-03T13:21:06.873Z,4.19